sensor_id;sensor_type;location;lat;lon;timestamp;P1;durP1;ratioP1;P2;durP2;ratioP2
9276;SDS011;4676;42.678;23.244;2023-01-29T00:01:04;8.23;;;5.63;;
9276;SDS011;4676;42.678;23.244;2023-01-29T00:03:31;7.53;;;5.70;;
9276;SDS011;4676;42.678;23.244;2023-01-29T00:05:59;6.23;;;5.33;;
9276;SDS011;4676;42.678;23.244;2023-01-29T00:08:31;5.80;;;5.30;;
9276;SDS011;4676;42.678;23.244;2023-01-29T00:10:59;6.30;;;5.70;;
9276;SDS011;4676;42.678;23.244;2023-01-29T00:13:26;7.77;;;5.13;;
9276;SDS011;4676;42.678;23.244;2023-01-29T00:15:53;8.90;;;6.37;;
9276;SDS011;4676;42.678;23.244;2023-01-29T00:18:21;9.13;;;6.07;;
9276;SDS011;4676;42.678;23.244;2023-01-29T00:20:48;9.93;;;6.43;;
9276;SDS011;4676;42.678;23.244;2023-01-29T00:23:14;8.80;;;6.90;;
9276;SDS011;4676;42.678;23.244;2023-01-29T00:25:43;11.47;;;9.23;;
9276;SDS011;4676;42.678;23.244;2023-01-29T00:28:10;6.40;;;5.83;;
9276;SDS011;4676;42.678;23.244;2023-01-29T00:30:37;6.47;;;5.57;;
9276;SDS011;4676;42.678;23.244;2023-01-29T00:33:04;11.20;;;7.90;;
9276;SDS011;4676;42.678;23.244;2023-01-29T00:35:31;5.60;;;5.00;;
9276;SDS011;4676;42.678;23.244;2023-01-29T00:37:58;9.73;;;6.70;;
9276;SDS011;4676;42.678;23.244;2023-01-29T00:40:25;7.40;;;6.23;;
9276;SDS011;4676;42.678;23.244;2023-01-29T00:43:14;5.23;;;4.90;;
9276;SDS011;4676;42.678;23.244;2023-01-29T00:45:58;8.37;;;7.43;;
9276;SDS011;4676;42.678;23.244;2023-01-29T00:48:25;5.93;;;5.20;;
9276;SDS011;4676;42.678;23.244;2023-01-29T00:50:51;7.63;;;6.37;;
9276;SDS011;4676;42.678;23.244;2023-01-29T00:53:18;6.83;;;6.13;;
9276;SDS011;4676;42.678;23.244;2023-01-29T00:55:45;6.03;;;5.40;;
9276;SDS011;4676;42.678;23.244;2023-01-29T00:58:11;9.53;;;5.47;;
9276;SDS011;4676;42.678;23.244;2023-01-29T01:00:46;10.63;;;6.47;;
9276;SDS011;4676;42.678;23.244;2023-01-29T01:03:13;6.40;;;5.77;;
9276;SDS011;4676;42.678;23.244;2023-01-29T01:05:38;7.50;;;6.70;;
9276;SDS011;4676;42.678;23.244;2023-01-29T01:08:06;8.60;;;6.13;;
9276;SDS011;4676;42.678;23.244;2023-01-29T01:10:56;9.40;;;7.60;;
9276;SDS011;4676;42.678;23.244;2023-01-29T01:13:25;6.20;;;5.60;;
9276;SDS011;4676;42.678;23.244;2023-01-29T01:15:53;15.73;;;9.53;;
9276;SDS011;4676;42.678;23.244;2023-01-29T01:18:19;6.73;;;5.60;;
9276;SDS011;4676;42.678;23.244;2023-01-29T01:20:47;6.17;;;5.67;;
9276;SDS011;4676;42.678;23.244;2023-01-29T01:23:15;8.63;;;5.63;;
9276;SDS011;4676;42.678;23.244;2023-01-29T01:25:43;6.47;;;5.50;;
9276;SDS011;4676;42.678;23.244;2023-01-29T01:28:10;6.37;;;4.80;;
9276;SDS011;4676;42.678;23.244;2023-01-29T01:30:39;8.60;;;5.80;;
9276;SDS011;4676;42.678;23.244;2023-01-29T01:33:05;6.70;;;6.07;;
9276;SDS011;4676;42.678;23.244;2023-01-29T01:35:32;5.77;;;5.00;;
9276;SDS011;4676;42.678;23.244;2023-01-29T01:37:59;6.30;;;5.37;;
9276;SDS011;4676;42.678;23.244;2023-01-29T01:40:27;6.00;;;5.13;;
9276;SDS011;4676;42.678;23.244;2023-01-29T01:42:55;6.67;;;6.03;;
9276;SDS011;4676;42.678;23.244;2023-01-29T01:45:24;5.70;;;5.20;;
9276;SDS011;4676;42.678;23.244;2023-01-29T01:47:55;4.93;;;4.37;;
9276;SDS011;4676;42.678;23.244;2023-01-29T01:50:26;8.73;;;6.43;;
9276;SDS011;4676;42.678;23.244;2023-01-29T01:52:57;5.83;;;5.33;;
9276;SDS011;4676;42.678;23.244;2023-01-29T01:55:28;6.77;;;5.03;;
9276;SDS011;4676;42.678;23.244;2023-01-29T01:58:02;7.00;;;5.70;;
9276;SDS011;4676;42.678;23.244;2023-01-29T02:00:32;6.90;;;5.80;;
9276;SDS011;4676;42.678;23.244;2023-01-29T02:03:00;6.30;;;5.30;;
9276;SDS011;4676;42.678;23.244;2023-01-29T02:05:46;6.60;;;5.20;;
9276;SDS011;4676;42.678;23.244;2023-01-29T02:08:31;4.90;;;4.60;;
9276;SDS011;4676;42.678;23.244;2023-01-29T02:11:21;5.00;;;4.60;;
9276;SDS011;4676;42.678;23.244;2023-01-29T02:13:49;6.40;;;5.50;;
9276;SDS011;4676;42.678;23.244;2023-01-29T02:16:17;6.07;;;5.27;;
9276;SDS011;4676;42.678;23.244;2023-01-29T02:18:46;5.70;;;5.10;;
9276;SDS011;4676;42.678;23.244;2023-01-29T02:21:17;5.83;;;5.30;;
9276;SDS011;4676;42.678;23.244;2023-01-29T02:23:59;5.20;;;4.80;;
9276;SDS011;4676;42.678;23.244;2023-01-29T02:26:56;5.50;;;5.00;;
9276;SDS011;4676;42.678;23.244;2023-01-29T02:29:31;4.90;;;4.60;;
9276;SDS011;4676;42.678;23.244;2023-01-29T02:32:14;7.10;;;4.80;;
9276;SDS011;4676;42.678;23.244;2023-01-29T02:34:46;5.93;;;5.33;;
9276;SDS011;4676;42.678;23.244;2023-01-29T02:37:37;5.00;;;4.60;;
9276;SDS011;4676;42.678;23.244;2023-01-29T02:40:12;6.17;;;5.60;;
9276;SDS011;4676;42.678;23.244;2023-01-29T02:42:49;6.10;;;5.47;;
9276;SDS011;4676;42.678;23.244;2023-01-29T02:45:21;5.33;;;4.90;;
9276;SDS011;4676;42.678;23.244;2023-01-29T02:47:56;5.53;;;4.90;;
9276;SDS011;4676;42.678;23.244;2023-01-29T02:50:26;5.77;;;5.37;;
9276;SDS011;4676;42.678;23.244;2023-01-29T02:52:57;7.80;;;5.07;;
9276;SDS011;4676;42.678;23.244;2023-01-29T02:55:29;4.87;;;4.57;;
9276;SDS011;4676;42.678;23.244;2023-01-29T02:58:03;6.27;;;5.67;;
9276;SDS011;4676;42.678;23.244;2023-01-29T03:00:38;9.33;;;7.20;;
9276;SDS011;4676;42.678;23.244;2023-01-29T03:03:10;7.13;;;6.53;;
9276;SDS011;4676;42.678;23.244;2023-01-29T03:05:40;6.03;;;5.53;;
9276;SDS011;4676;42.678;23.244;2023-01-29T03:08:20;5.10;;;4.70;;
9276;SDS011;4676;42.678;23.244;2023-01-29T03:11:01;5.47;;;5.07;;
9276;SDS011;4676;42.678;23.244;2023-01-29T03:13:30;6.07;;;5.47;;
9276;SDS011;4676;42.678;23.244;2023-01-29T03:16:05;5.73;;;5.10;;
9276;SDS011;4676;42.678;23.244;2023-01-29T03:18:37;5.87;;;5.37;;
9276;SDS011;4676;42.678;23.244;2023-01-29T03:21:11;6.27;;;5.67;;
9276;SDS011;4676;42.678;23.244;2023-01-29T03:24:00;7.53;;;5.30;;
9276;SDS011;4676;42.678;23.244;2023-01-29T03:26:46;5.73;;;5.23;;
9276;SDS011;4676;42.678;23.244;2023-01-29T03:29:31;5.40;;;4.90;;
9276;SDS011;4676;42.678;23.244;2023-01-29T03:32:19;5.33;;;4.90;;
9276;SDS011;4676;42.678;23.244;2023-01-29T03:34:50;5.63;;;5.07;;
9276;SDS011;4676;42.678;23.244;2023-01-29T03:37:23;5.27;;;4.33;;
9276;SDS011;4676;42.678;23.244;2023-01-29T03:39:53;3.93;;;3.63;;
9276;SDS011;4676;42.678;23.244;2023-01-29T03:42:22;5.20;;;4.70;;
9276;SDS011;4676;42.678;23.244;2023-01-29T03:44:56;4.20;;;4.00;;
9276;SDS011;4676;42.678;23.244;2023-01-29T03:47:34;4.50;;;4.13;;
9276;SDS011;4676;42.678;23.244;2023-01-29T03:50:11;4.03;;;3.60;;
9276;SDS011;4676;42.678;23.244;2023-01-29T03:52:46;4.07;;;3.77;;
9276;SDS011;4676;42.678;23.244;2023-01-29T03:55:18;5.33;;;4.17;;
9276;SDS011;4676;42.678;23.244;2023-01-29T03:57:50;4.27;;;3.97;;
9276;SDS011;4676;42.678;23.244;2023-01-29T04:00:25;5.53;;;4.83;;
9276;SDS011;4676;42.678;23.244;2023-01-29T04:02:56;5.20;;;4.23;;
9276;SDS011;4676;42.678;23.244;2023-01-29T04:05:34;4.47;;;4.07;;
9276;SDS011;4676;42.678;23.244;2023-01-29T04:08:09;4.13;;;3.83;;
9276;SDS011;4676;42.678;23.244;2023-01-29T04:10:42;5.93;;;4.70;;
9276;SDS011;4676;42.678;23.244;2023-01-29T04:13:12;4.30;;;4.03;;
9276;SDS011;4676;42.678;23.244;2023-01-29T04:15:42;5.07;;;4.57;;
9276;SDS011;4676;42.678;23.244;2023-01-29T04:18:13;3.93;;;3.63;;
9276;SDS011;4676;42.678;23.244;2023-01-29T04:20:40;3.67;;;3.37;;
9276;SDS011;4676;42.678;23.244;2023-01-29T04:23:16;3.47;;;3.27;;
9276;SDS011;4676;42.678;23.244;2023-01-29T04:25:47;3.47;;;3.30;;
9276;SDS011;4676;42.678;23.244;2023-01-29T04:28:25;4.00;;;3.70;;
9276;SDS011;4676;42.678;23.244;2023-01-29T04:31:01;4.07;;;3.80;;
9276;SDS011;4676;42.678;23.244;2023-01-29T04:33:34;3.40;;;3.20;;
9276;SDS011;4676;42.678;23.244;2023-01-29T04:36:15;3.37;;;3.17;;
9276;SDS011;4676;42.678;23.244;2023-01-29T04:38:55;3.60;;;3.30;;
9276;SDS011;4676;42.678;23.244;2023-01-29T04:41:31;3.67;;;3.47;;
9276;SDS011;4676;42.678;23.244;2023-01-29T04:44:04;4.03;;;3.83;;
9276;SDS011;4676;42.678;23.244;2023-01-29T04:46:39;4.07;;;3.87;;
9276;SDS011;4676;42.678;23.244;2023-01-29T04:49:16;3.90;;;3.50;;
9276;SDS011;4676;42.678;23.244;2023-01-29T04:51:55;3.60;;;3.30;;
9276;SDS011;4676;42.678;23.244;2023-01-29T04:54:28;4.13;;;3.83;;
9276;SDS011;4676;42.678;23.244;2023-01-29T04:57:04;4.73;;;4.43;;
9276;SDS011;4676;42.678;23.244;2023-01-29T04:59:38;4.07;;;3.77;;
9276;SDS011;4676;42.678;23.244;2023-01-29T05:02:08;3.80;;;3.50;;
9276;SDS011;4676;42.678;23.244;2023-01-29T05:04:38;4.47;;;4.27;;
9276;SDS011;4676;42.678;23.244;2023-01-29T05:07:09;4.70;;;4.30;;
9276;SDS011;4676;42.678;23.244;2023-01-29T05:09:39;4.60;;;4.17;;
9276;SDS011;4676;42.678;23.244;2023-01-29T05:12:09;4.30;;;4.00;;
9276;SDS011;4676;42.678;23.244;2023-01-29T05:14:38;6.03;;;3.80;;
9276;SDS011;4676;42.678;23.244;2023-01-29T05:17:08;3.27;;;3.07;;
9276;SDS011;4676;42.678;23.244;2023-01-29T05:19:41;3.00;;;2.80;;
9276;SDS011;4676;42.678;23.244;2023-01-29T05:22:08;3.73;;;3.53;;
9276;SDS011;4676;42.678;23.244;2023-01-29T05:24:37;3.80;;;3.47;;
9276;SDS011;4676;42.678;23.244;2023-01-29T05:27:03;3.60;;;3.40;;
9276;SDS011;4676;42.678;23.244;2023-01-29T05:29:48;4.90;;;4.60;;
9276;SDS011;4676;42.678;23.244;2023-01-29T05:32:14;3.93;;;3.63;;
9276;SDS011;4676;42.678;23.244;2023-01-29T05:34:43;3.60;;;3.30;;
9276;SDS011;4676;42.678;23.244;2023-01-29T05:37:09;4.00;;;3.73;;
9276;SDS011;4676;42.678;23.244;2023-01-29T05:39:36;3.93;;;3.67;;
9276;SDS011;4676;42.678;23.244;2023-01-29T05:42:03;3.60;;;3.40;;
9276;SDS011;4676;42.678;23.244;2023-01-29T05:44:30;4.67;;;4.37;;
9276;SDS011;4676;42.678;23.244;2023-01-29T05:46:56;4.37;;;3.77;;
9276;SDS011;4676;42.678;23.244;2023-01-29T05:49:23;4.40;;;4.10;;
9276;SDS011;4676;42.678;23.244;2023-01-29T05:51:51;3.73;;;3.53;;
9276;SDS011;4676;42.678;23.244;2023-01-29T05:54:18;3.60;;;3.40;;
9276;SDS011;4676;42.678;23.244;2023-01-29T05:56:45;4.40;;;4.10;;
9276;SDS011;4676;42.678;23.244;2023-01-29T05:59:11;4.67;;;4.37;;
9276;SDS011;4676;42.678;23.244;2023-01-29T06:01:38;5.57;;;4.30;;
9276;SDS011;4676;42.678;23.244;2023-01-29T06:04:05;5.43;;;4.27;;
9276;SDS011;4676;42.678;23.244;2023-01-29T06:06:32;5.07;;;4.67;;
9276;SDS011;4676;42.678;23.244;2023-01-29T06:09:00;8.43;;;3.93;;
9276;SDS011;4676;42.678;23.244;2023-01-29T06:11:26;4.10;;;3.90;;
9276;SDS011;4676;42.678;23.244;2023-01-29T06:13:54;3.30;;;3.10;;
9276;SDS011;4676;42.678;23.244;2023-01-29T06:16:21;4.23;;;4.03;;
9276;SDS011;4676;42.678;23.244;2023-01-29T06:18:48;8.73;;;7.23;;
9276;SDS011;4676;42.678;23.244;2023-01-29T06:21:14;12.60;;;7.10;;
9276;SDS011;4676;42.678;23.244;2023-01-29T06:23:41;6.30;;;5.27;;
9276;SDS011;4676;42.678;23.244;2023-01-29T06:26:10;7.40;;;4.50;;
9276;SDS011;4676;42.678;23.244;2023-01-29T06:28:38;4.80;;;4.50;;
9276;SDS011;4676;42.678;23.244;2023-01-29T06:31:06;5.23;;;4.80;;
9276;SDS011;4676;42.678;23.244;2023-01-29T06:33:33;4.93;;;4.43;;
9276;SDS011;4676;42.678;23.244;2023-01-29T06:36:00;4.57;;;4.27;;
9276;SDS011;4676;42.678;23.244;2023-01-29T06:38:29;5.53;;;5.13;;
9276;SDS011;4676;42.678;23.244;2023-01-29T06:40:57;7.87;;;5.37;;
9276;SDS011;4676;42.678;23.244;2023-01-29T06:43:25;5.83;;;4.87;;
9276;SDS011;4676;42.678;23.244;2023-01-29T06:45:53;11.67;;;6.83;;
9276;SDS011;4676;42.678;23.244;2023-01-29T06:48:21;8.90;;;6.60;;
9276;SDS011;4676;42.678;23.244;2023-01-29T06:50:49;5.17;;;4.67;;
9276;SDS011;4676;42.678;23.244;2023-01-29T06:53:19;6.57;;;6.00;;
9276;SDS011;4676;42.678;23.244;2023-01-29T06:55:49;6.73;;;6.23;;
9276;SDS011;4676;42.678;23.244;2023-01-29T06:58:18;6.97;;;6.40;;
9276;SDS011;4676;42.678;23.244;2023-01-29T07:00:47;14.20;;;10.50;;
9276;SDS011;4676;42.678;23.244;2023-01-29T07:03:14;6.87;;;6.27;;
9276;SDS011;4676;42.678;23.244;2023-01-29T07:05:40;6.93;;;6.23;;
9276;SDS011;4676;42.678;23.244;2023-01-29T07:08:07;8.77;;;6.83;;
9276;SDS011;4676;42.678;23.244;2023-01-29T07:10:34;6.73;;;6.13;;
9276;SDS011;4676;42.678;23.244;2023-01-29T07:13:01;7.97;;;6.20;;
9276;SDS011;4676;42.678;23.244;2023-01-29T07:15:28;7.20;;;6.50;;
9276;SDS011;4676;42.678;23.244;2023-01-29T07:17:57;6.23;;;5.40;;
9276;SDS011;4676;42.678;23.244;2023-01-29T07:20:25;6.53;;;5.93;;
9276;SDS011;4676;42.678;23.244;2023-01-29T07:22:53;11.93;;;8.90;;
9276;SDS011;4676;42.678;23.244;2023-01-29T07:25:20;6.20;;;5.60;;
9276;SDS011;4676;42.678;23.244;2023-01-29T07:27:47;8.47;;;7.60;;
9276;SDS011;4676;42.678;23.244;2023-01-29T07:30:14;8.30;;;7.47;;
9276;SDS011;4676;42.678;23.244;2023-01-29T07:32:41;8.00;;;7.20;;
9276;SDS011;4676;42.678;23.244;2023-01-29T07:35:10;6.83;;;6.13;;
9276;SDS011;4676;42.678;23.244;2023-01-29T07:37:37;6.50;;;5.90;;
9276;SDS011;4676;42.678;23.244;2023-01-29T07:40:04;7.27;;;6.57;;
9276;SDS011;4676;42.678;23.244;2023-01-29T07:42:35;5.47;;;5.07;;
9276;SDS011;4676;42.678;23.244;2023-01-29T07:45:03;6.20;;;5.60;;
9276;SDS011;4676;42.678;23.244;2023-01-29T07:47:31;7.60;;;6.40;;
9276;SDS011;4676;42.678;23.244;2023-01-29T07:49:58;7.23;;;6.50;;
9276;SDS011;4676;42.678;23.244;2023-01-29T07:52:27;6.90;;;5.80;;
9276;SDS011;4676;42.678;23.244;2023-01-29T07:54:55;6.50;;;5.90;;
9276;SDS011;4676;42.678;23.244;2023-01-29T07:57:22;8.53;;;7.47;;
9276;SDS011;4676;42.678;23.244;2023-01-29T07:59:49;9.37;;;6.83;;
9276;SDS011;4676;42.678;23.244;2023-01-29T08:02:16;10.90;;;8.97;;
9276;SDS011;4676;42.678;23.244;2023-01-29T08:04:42;8.13;;;7.07;;
9276;SDS011;4676;42.678;23.244;2023-01-29T08:07:09;9.13;;;8.20;;
9276;SDS011;4676;42.678;23.244;2023-01-29T08:09:37;8.00;;;7.30;;
9276;SDS011;4676;42.678;23.244;2023-01-29T08:12:04;9.80;;;7.73;;
9276;SDS011;4676;42.678;23.244;2023-01-29T08:14:31;8.80;;;6.57;;
9276;SDS011;4676;42.678;23.244;2023-01-29T08:16:57;14.30;;;10.83;;
9276;SDS011;4676;42.678;23.244;2023-01-29T08:19:24;15.73;;;10.20;;
9276;SDS011;4676;42.678;23.244;2023-01-29T08:21:51;8.93;;;7.40;;
9276;SDS011;4676;42.678;23.244;2023-01-29T08:24:18;8.13;;;7.33;;
9276;SDS011;4676;42.678;23.244;2023-01-29T08:26:46;12.13;;;8.83;;
9276;SDS011;4676;42.678;23.244;2023-01-29T08:29:12;10.80;;;7.33;;
9276;SDS011;4676;42.678;23.244;2023-01-29T08:31:39;7.83;;;7.03;;
9276;SDS011;4676;42.678;23.244;2023-01-29T08:34:06;8.63;;;7.90;;
9276;SDS011;4676;42.678;23.244;2023-01-29T08:36:33;80.60;;;28.77;;
9276;SDS011;4676;42.678;23.244;2023-01-29T08:39:00;12.50;;;10.87;;
9276;SDS011;4676;42.678;23.244;2023-01-29T08:41:27;15.40;;;10.60;;
9276;SDS011;4676;42.678;23.244;2023-01-29T08:43:55;10.10;;;7.33;;
9276;SDS011;4676;42.678;23.244;2023-01-29T08:46:22;16.93;;;10.07;;
9276;SDS011;4676;42.678;23.244;2023-01-29T08:48:48;9.33;;;8.07;;
9276;SDS011;4676;42.678;23.244;2023-01-29T08:51:15;10.60;;;6.37;;
9276;SDS011;4676;42.678;23.244;2023-01-29T08:53:42;8.17;;;6.17;;
9276;SDS011;4676;42.678;23.244;2023-01-29T08:56:09;10.60;;;6.90;;
9276;SDS011;4676;42.678;23.244;2023-01-29T08:58:36;10.27;;;8.03;;
9276;SDS011;4676;42.678;23.244;2023-01-29T09:01:07;8.07;;;6.33;;
9276;SDS011;4676;42.678;23.244;2023-01-29T09:03:35;16.97;;;10.33;;
9276;SDS011;4676;42.678;23.244;2023-01-29T09:06:05;53.03;;;18.30;;
9276;SDS011;4676;42.678;23.244;2023-01-29T09:08:32;60.37;;;19.57;;
9276;SDS011;4676;42.678;23.244;2023-01-29T09:10:59;48.80;;;20.60;;
9276;SDS011;4676;42.678;23.244;2023-01-29T09:13:26;12.43;;;9.13;;
9276;SDS011;4676;42.678;23.244;2023-01-29T09:15:52;14.87;;;9.63;;
9276;SDS011;4676;42.678;23.244;2023-01-29T09:18:20;12.13;;;8.60;;
9276;SDS011;4676;42.678;23.244;2023-01-29T09:20:48;10.80;;;9.17;;
9276;SDS011;4676;42.678;23.244;2023-01-29T09:23:15;13.60;;;10.10;;
9276;SDS011;4676;42.678;23.244;2023-01-29T09:25:42;11.80;;;8.97;;
9276;SDS011;4676;42.678;23.244;2023-01-29T09:28:09;9.73;;;8.40;;
9276;SDS011;4676;42.678;23.244;2023-01-29T09:30:35;10.47;;;7.37;;
9276;SDS011;4676;42.678;23.244;2023-01-29T09:33:02;9.37;;;8.37;;
9276;SDS011;4676;42.678;23.244;2023-01-29T09:35:31;12.77;;;8.23;;
9276;SDS011;4676;42.678;23.244;2023-01-29T09:37:58;12.00;;;9.93;;
9276;SDS011;4676;42.678;23.244;2023-01-29T09:40:25;16.43;;;9.30;;
9276;SDS011;4676;42.678;23.244;2023-01-29T09:42:58;9.00;;;8.10;;
9276;SDS011;4676;42.678;23.244;2023-01-29T09:45:28;10.40;;;9.03;;
9276;SDS011;4676;42.678;23.244;2023-01-29T09:47:56;8.47;;;7.33;;
9276;SDS011;4676;42.678;23.244;2023-01-29T09:50:35;11.70;;;8.03;;
9276;SDS011;4676;42.678;23.244;2023-01-29T09:53:09;10.17;;;8.00;;
9276;SDS011;4676;42.678;23.244;2023-01-29T09:55:42;16.07;;;8.77;;
9276;SDS011;4676;42.678;23.244;2023-01-29T09:58:16;12.73;;;8.37;;
9276;SDS011;4676;42.678;23.244;2023-01-29T10:00:49;15.43;;;9.73;;
9276;SDS011;4676;42.678;23.244;2023-01-29T10:06:23;11.37;;;7.80;;
9276;SDS011;4676;42.678;23.244;2023-01-29T10:09:02;11.93;;;9.30;;
9276;SDS011;4676;42.678;23.244;2023-01-29T10:11:47;10.87;;;8.63;;
9276;SDS011;4676;42.678;23.244;2023-01-29T10:14:29;14.17;;;9.13;;
9276;SDS011;4676;42.678;23.244;2023-01-29T10:17:07;12.83;;;10.40;;
9276;SDS011;4676;42.678;23.244;2023-01-29T10:19:55;16.03;;;9.50;;
9276;SDS011;4676;42.678;23.244;2023-01-29T10:22:42;12.13;;;7.43;;
9276;SDS011;4676;42.678;23.244;2023-01-29T10:25:19;21.60;;;11.33;;
9276;SDS011;4676;42.678;23.244;2023-01-29T10:27:47;14.80;;;10.17;;
9276;SDS011;4676;42.678;23.244;2023-01-29T10:30:20;16.13;;;10.00;;
9276;SDS011;4676;42.678;23.244;2023-01-29T10:32:53;12.07;;;9.57;;
9276;SDS011;4676;42.678;23.244;2023-01-29T10:35:23;14.97;;;9.97;;
9276;SDS011;4676;42.678;23.244;2023-01-29T10:37:57;21.33;;;10.23;;
9276;SDS011;4676;42.678;23.244;2023-01-29T10:40:28;11.27;;;7.57;;
9276;SDS011;4676;42.678;23.244;2023-01-29T10:43:02;15.40;;;9.73;;
9276;SDS011;4676;42.678;23.244;2023-01-29T10:45:36;17.77;;;10.57;;
9276;SDS011;4676;42.678;23.244;2023-01-29T10:51:04;25.77;;;11.47;;
9276;SDS011;4676;42.678;23.244;2023-01-29T10:56:41;11.77;;;8.70;;
9276;SDS011;4676;42.678;23.244;2023-01-29T10:59:23;15.43;;;10.73;;
9276;SDS011;4676;42.678;23.244;2023-01-29T11:02:07;26.47;;;13.80;;
9276;SDS011;4676;42.678;23.244;2023-01-29T11:04:39;18.13;;;11.20;;
9276;SDS011;4676;42.678;23.244;2023-01-29T11:07:06;22.87;;;13.07;;
9276;SDS011;4676;42.678;23.244;2023-01-29T11:09:36;16.73;;;11.23;;
9276;SDS011;4676;42.678;23.244;2023-01-29T11:12:08;15.87;;;10.90;;
9276;SDS011;4676;42.678;23.244;2023-01-29T11:14:41;16.03;;;11.33;;
9276;SDS011;4676;42.678;23.244;2023-01-29T11:17:13;18.40;;;11.47;;
9276;SDS011;4676;42.678;23.244;2023-01-29T11:19:42;18.67;;;10.77;;
9276;SDS011;4676;42.678;23.244;2023-01-29T11:22:12;17.40;;;10.33;;
9276;SDS011;4676;42.678;23.244;2023-01-29T11:24:41;19.93;;;12.13;;
9276;SDS011;4676;42.678;23.244;2023-01-29T11:27:20;25.50;;;12.63;;
9276;SDS011;4676;42.678;23.244;2023-01-29T11:29:50;23.63;;;11.37;;
9276;SDS011;4676;42.678;23.244;2023-01-29T11:32:24;15.27;;;8.47;;
9276;SDS011;4676;42.678;23.244;2023-01-29T11:34:58;16.57;;;9.23;;
9276;SDS011;4676;42.678;23.244;2023-01-29T11:37:36;15.70;;;8.87;;
9276;SDS011;4676;42.678;23.244;2023-01-29T11:43:17;16.07;;;10.90;;
9276;SDS011;4676;42.678;23.244;2023-01-29T11:45:46;13.07;;;9.77;;
9276;SDS011;4676;42.678;23.244;2023-01-29T11:48:15;13.77;;;9.07;;
9276;SDS011;4676;42.678;23.244;2023-01-29T11:50:43;15.73;;;10.40;;
9276;SDS011;4676;42.678;23.244;2023-01-29T11:53:21;13.70;;;9.80;;
9276;SDS011;4676;42.678;23.244;2023-01-29T11:55:53;19.57;;;11.07;;
9276;SDS011;4676;42.678;23.244;2023-01-29T11:58:23;18.47;;;12.30;;
9276;SDS011;4676;42.678;23.244;2023-01-29T12:00:54;15.47;;;10.37;;
9276;SDS011;4676;42.678;23.244;2023-01-29T12:03:27;15.07;;;10.37;;
9276;SDS011;4676;42.678;23.244;2023-01-29T12:06:00;14.60;;;9.70;;
9276;SDS011;4676;42.678;23.244;2023-01-29T12:08:32;21.77;;;11.13;;
9276;SDS011;4676;42.678;23.244;2023-01-29T12:11:10;19.77;;;11.80;;
9276;SDS011;4676;42.678;23.244;2023-01-29T12:13:38;26.17;;;13.60;;
9276;SDS011;4676;42.678;23.244;2023-01-29T12:16:12;34.10;;;16.53;;
9276;SDS011;4676;42.678;23.244;2023-01-29T12:18:45;22.97;;;11.67;;
9276;SDS011;4676;42.678;23.244;2023-01-29T12:21:19;15.90;;;10.27;;
9276;SDS011;4676;42.678;23.244;2023-01-29T12:23:53;12.97;;;8.10;;
9276;SDS011;4676;42.678;23.244;2023-01-29T12:26:28;31.83;;;16.40;;
9276;SDS011;4676;42.678;23.244;2023-01-29T12:29:04;17.10;;;11.87;;
9276;SDS011;4676;42.678;23.244;2023-01-29T12:31:43;33.50;;;16.13;;
9276;SDS011;4676;42.678;23.244;2023-01-29T12:34:18;22.43;;;12.10;;
9276;SDS011;4676;42.678;23.244;2023-01-29T12:36:54;16.87;;;11.23;;
9276;SDS011;4676;42.678;23.244;2023-01-29T12:39:24;22.57;;;10.63;;
9276;SDS011;4676;42.678;23.244;2023-01-29T12:41:53;19.83;;;11.23;;
9276;SDS011;4676;42.678;23.244;2023-01-29T12:44:24;22.23;;;14.07;;
9276;SDS011;4676;42.678;23.244;2023-01-29T12:46:59;20.90;;;12.73;;
9276;SDS011;4676;42.678;23.244;2023-01-29T12:49:27;14.27;;;10.20;;
9276;SDS011;4676;42.678;23.244;2023-01-29T12:51:59;24.90;;;14.10;;
9276;SDS011;4676;42.678;23.244;2023-01-29T12:54:31;10.80;;;9.70;;
9276;SDS011;4676;42.678;23.244;2023-01-29T12:57:06;20.93;;;10.13;;
9276;SDS011;4676;42.678;23.244;2023-01-29T12:59:35;10.57;;;8.93;;
9276;SDS011;4676;42.678;23.244;2023-01-29T13:02:11;19.63;;;11.13;;
9276;SDS011;4676;42.678;23.244;2023-01-29T13:04:50;14.67;;;10.70;;
9276;SDS011;4676;42.678;23.244;2023-01-29T13:07:24;20.30;;;11.67;;
9276;SDS011;4676;42.678;23.244;2023-01-29T13:09:58;18.83;;;11.80;;
9276;SDS011;4676;42.678;23.244;2023-01-29T13:12:31;14.37;;;8.83;;
9276;SDS011;4676;42.678;23.244;2023-01-29T13:15:01;26.63;;;13.27;;
9276;SDS011;4676;42.678;23.244;2023-01-29T13:17:32;14.67;;;10.07;;
9276;SDS011;4676;42.678;23.244;2023-01-29T13:20:03;18.47;;;12.07;;
9276;SDS011;4676;42.678;23.244;2023-01-29T13:22:38;12.67;;;9.03;;
9276;SDS011;4676;42.678;23.244;2023-01-29T13:25:11;11.63;;;8.50;;
9276;SDS011;4676;42.678;23.244;2023-01-29T13:27:42;13.70;;;9.37;;
9276;SDS011;4676;42.678;23.244;2023-01-29T13:30:22;14.30;;;9.23;;
9276;SDS011;4676;42.678;23.244;2023-01-29T13:32:50;9.07;;;8.17;;
9276;SDS011;4676;42.678;23.244;2023-01-29T13:35:19;11.13;;;8.57;;
9276;SDS011;4676;42.678;23.244;2023-01-29T13:37:48;16.17;;;10.70;;
9276;SDS011;4676;42.678;23.244;2023-01-29T13:40:21;46.13;;;21.70;;
9276;SDS011;4676;42.678;23.244;2023-01-29T13:42:51;16.97;;;10.23;;
9276;SDS011;4676;42.678;23.244;2023-01-29T13:45:20;19.70;;;12.43;;
9276;SDS011;4676;42.678;23.244;2023-01-29T13:47:49;13.63;;;9.83;;
9276;SDS011;4676;42.678;23.244;2023-01-29T13:50:18;11.03;;;7.63;;
9276;SDS011;4676;42.678;23.244;2023-01-29T13:52:52;12.73;;;8.93;;
9276;SDS011;4676;42.678;23.244;2023-01-29T13:55:22;17.50;;;11.07;;
9276;SDS011;4676;42.678;23.244;2023-01-29T13:57:56;18.30;;;11.20;;
9276;SDS011;4676;42.678;23.244;2023-01-29T14:03:39;35.87;;;22.03;;
9276;SDS011;4676;42.678;23.244;2023-01-29T14:06:10;17.77;;;11.87;;
9276;SDS011;4676;42.678;23.244;2023-01-29T14:08:38;17.47;;;11.53;;
9276;SDS011;4676;42.678;23.244;2023-01-29T14:11:31;11.63;;;9.93;;
9276;SDS011;4676;42.678;23.244;2023-01-29T14:14:02;15.17;;;9.93;;
9276;SDS011;4676;42.678;23.244;2023-01-29T14:17:07;19.50;;;9.83;;
9276;SDS011;4676;42.678;23.244;2023-01-29T14:19:34;17.97;;;10.77;;
9276;SDS011;4676;42.678;23.244;2023-01-29T14:22:01;25.77;;;13.40;;
9276;SDS011;4676;42.678;23.244;2023-01-29T14:24:30;24.83;;;14.53;;
9276;SDS011;4676;42.678;23.244;2023-01-29T14:26:58;22.70;;;11.53;;
9276;SDS011;4676;42.678;23.244;2023-01-29T14:29:28;19.93;;;11.40;;
9276;SDS011;4676;42.678;23.244;2023-01-29T14:32:08;16.57;;;10.90;;
9276;SDS011;4676;42.678;23.244;2023-01-29T14:34:40;44.03;;;20.07;;
9276;SDS011;4676;42.678;23.244;2023-01-29T14:37:17;51.83;;;18.27;;
9276;SDS011;4676;42.678;23.244;2023-01-29T14:39:47;54.93;;;18.83;;
9276;SDS011;4676;42.678;23.244;2023-01-29T14:42:20;24.73;;;13.07;;
9276;SDS011;4676;42.678;23.244;2023-01-29T14:45:05;29.90;;;13.57;;
9276;SDS011;4676;42.678;23.244;2023-01-29T14:47:51;88.57;;;27.33;;
9276;SDS011;4676;42.678;23.244;2023-01-29T14:53:13;33.00;;;16.83;;
9276;SDS011;4676;42.678;23.244;2023-01-29T14:55:47;45.77;;;20.93;;
9276;SDS011;4676;42.678;23.244;2023-01-29T14:58:21;34.47;;;16.47;;
9276;SDS011;4676;42.678;23.244;2023-01-29T15:00:55;26.37;;;14.40;;
9276;SDS011;4676;42.678;23.244;2023-01-29T15:03:27;25.87;;;13.03;;
9276;SDS011;4676;42.678;23.244;2023-01-29T15:06:00;23.63;;;12.63;;
9276;SDS011;4676;42.678;23.244;2023-01-29T15:08:31;46.03;;;19.87;;
9276;SDS011;4676;42.678;23.244;2023-01-29T15:11:05;25.20;;;14.13;;
9276;SDS011;4676;42.678;23.244;2023-01-29T15:13:52;18.03;;;11.73;;
9276;SDS011;4676;42.678;23.244;2023-01-29T15:16:28;36.60;;;17.20;;
9276;SDS011;4676;42.678;23.244;2023-01-29T15:19:04;31.83;;;16.00;;
9276;SDS011;4676;42.678;23.244;2023-01-29T15:21:38;38.90;;;19.77;;
9276;SDS011;4676;42.678;23.244;2023-01-29T15:24:05;17.93;;;9.97;;
9276;SDS011;4676;42.678;23.244;2023-01-29T15:26:32;17.60;;;10.97;;
9276;SDS011;4676;42.678;23.244;2023-01-29T15:29:01;20.47;;;13.57;;
9276;SDS011;4676;42.678;23.244;2023-01-29T15:31:31;34.30;;;19.53;;
9276;SDS011;4676;42.678;23.244;2023-01-29T15:34:00;66.33;;;27.73;;